createdAt,value
2017-11-13T00:01:52.283Z,8.03
2017-11-13T00:04:20.405Z,13.57
2017-11-13T00:06:48.945Z,7.10
2017-11-13T00:09:17.073Z,8.13
2017-11-13T00:11:45.182Z,6.67
2017-11-13T00:14:13.326Z,8.10
2017-11-13T00:16:41.459Z,6.03
2017-11-13T00:19:09.570Z,11.80
2017-11-13T00:21:38.461Z,6.53
2017-11-13T00:24:07.364Z,7.33
2017-11-13T00:26:36.236Z,7.67
2017-11-13T00:29:05.140Z,8.87
2017-11-13T00:31:33.313Z,8.03
2017-11-13T00:34:02.193Z,6.20
2017-11-13T00:36:31.141Z,5.83
2017-11-13T00:38:59.278Z,6.03
2017-11-13T00:41:27.408Z,9.10
2017-11-13T00:43:55.540Z,9.07
2017-11-13T00:46:23.701Z,8.40
2017-11-13T00:48:51.825Z,11.53
2017-11-13T00:51:21.462Z,7.73
2017-11-13T00:53:50.353Z,6.30
2017-11-13T00:56:18.477Z,8.23
2017-11-13T00:58:46.615Z,7.70
2017-11-13T01:01:14.719Z,7.27
2017-11-13T01:03:42.863Z,7.30
2017-11-13T01:06:10.988Z,7.30
2017-11-13T01:08:39.104Z,9.13
2017-11-13T01:11:07.219Z,7.73
2017-11-13T01:13:35.362Z,5.70
2017-11-13T01:16:03.477Z,7.70
2017-11-13T01:18:31.586Z,6.63
2017-11-13T01:20:59.722Z,6.90
2017-11-13T01:23:29.334Z,7.40
2017-11-13T01:25:58.222Z,6.73
2017-11-13T01:28:27.102Z,6.47
2017-11-13T01:30:55.237Z,10.27
2017-11-13T01:33:23.357Z,9.90
2017-11-13T01:35:52.289Z,9.67
2017-11-13T01:38:20.395Z,9.23
2017-11-13T01:40:48.514Z,9.70
2017-11-13T01:43:16.654Z,7.47
2017-11-13T01:45:45.538Z,10.63
2017-11-13T01:48:13.674Z,6.20
2017-11-13T01:50:41.807Z,8.60
2017-11-13T01:53:10.693Z,5.00
2017-11-13T01:55:39.564Z,9.63
2017-11-13T01:58:07.706Z,5.57
2017-11-13T02:00:35.836Z,7.00
2017-11-13T02:03:04.729Z,6.73
2017-11-13T02:05:32.846Z,5.57
2017-11-13T02:08:00.989Z,8.70
2017-11-13T02:10:29.103Z,7.50
2017-11-13T02:12:57.225Z,12.33
2017-11-13T02:15:25.356Z,6.87
2017-11-13T02:17:54.241Z,5.00
2017-11-13T02:20:23.178Z,8.03
2017-11-13T02:22:51.287Z,6.40
2017-11-13T02:25:19.419Z,8.67
2017-11-13T02:27:47.532Z,8.03
2017-11-13T02:30:15.673Z,7.90
2017-11-13T02:32:43.790Z,9.20
2017-11-13T02:35:11.930Z,10.47
2017-11-13T02:37:40.034Z,8.53
2017-11-13T02:40:08.175Z,11.57
2017-11-13T02:42:36.309Z,13.10
2017-11-13T02:45:04.445Z,9.93
2017-11-13T02:47:32.627Z,8.53
2017-11-13T02:50:02.281Z,13.93
2017-11-13T02:52:30.389Z,9.10
2017-11-13T02:54:58.540Z,10.73
2017-11-13T02:57:26.656Z,13.83
2017-11-13T02:59:54.789Z,7.40
2017-11-13T03:02:23.014Z,13.33
2017-11-13T03:04:51.141Z,11.20
2017-11-13T03:07:19.281Z,8.50
2017-11-13T03:09:47.434Z,7.30
2017-11-13T03:12:16.304Z,7.63
2017-11-13T03:14:44.434Z,7.53
2017-11-13T03:17:12.566Z,9.13
2017-11-13T03:19:41.453Z,8.50
2017-11-13T03:22:09.647Z,11.30
2017-11-13T03:24:37.787Z,7.77
2017-11-13T03:27:05.916Z,7.10
2017-11-13T03:29:34.050Z,7.87
2017-11-13T03:32:02.938Z,9.23
2017-11-13T03:34:31.824Z,9.00
2017-11-13T03:37:00.693Z,9.37
2017-11-13T03:39:28.894Z,10.23
2017-11-13T03:41:57.778Z,9.40
2017-11-13T03:44:26.671Z,11.20
2017-11-13T03:46:55.558Z,7.60
2017-11-13T03:49:25.286Z,8.70
2017-11-13T03:51:53.432Z,10.30
2017-11-13T03:54:21.553Z,10.50
2017-11-13T03:56:49.697Z,11.70
2017-11-13T03:59:17.817Z,6.63
2017-11-13T04:01:45.951Z,7.23
2017-11-13T04:04:14.066Z,9.73
2017-11-13T04:06:42.192Z,9.83
2017-11-13T04:09:10.317Z,9.87
2017-11-13T04:11:38.440Z,9.43
2017-11-13T04:14:06.557Z,7.40
2017-11-13T04:16:34.699Z,8.47
2017-11-13T04:19:02.816Z,8.47
2017-11-13T04:21:31.725Z,8.57
2017-11-13T04:23:59.846Z,12.33
2017-11-13T04:26:28.155Z,13.10
2017-11-13T04:28:57.047Z,11.97
2017-11-13T04:31:25.921Z,8.30
2017-11-13T04:33:54.057Z,7.07
2017-11-13T04:36:22.183Z,8.77
2017-11-13T04:38:50.305Z,7.27
2017-11-13T04:41:18.418Z,6.70
2017-11-13T04:43:46.544Z,9.00
2017-11-13T04:46:14.678Z,6.40
2017-11-13T04:48:43.565Z,7.33
2017-11-13T04:51:12.465Z,8.37
2017-11-13T04:53:41.371Z,10.17
2017-11-13T04:56:09.502Z,9.77
2017-11-13T04:58:37.651Z,9.17
2017-11-13T05:01:05.777Z,8.10
2017-11-13T05:03:33.930Z,10.80
2017-11-13T05:06:02.830Z,8.00
2017-11-13T05:08:31.795Z,7.93
2017-11-13T05:10:59.928Z,7.80
2017-11-13T05:13:28.061Z,7.10
2017-11-13T05:15:56.189Z,10.10
2017-11-13T05:18:24.331Z,8.17
2017-11-13T05:20:52.454Z,9.90
2017-11-13T05:23:20.625Z,13.63
2017-11-13T05:25:48.841Z,10.53
2017-11-13T05:28:17.705Z,9.63
2017-11-13T05:30:46.605Z,11.30
2017-11-13T05:33:15.498Z,7.00
2017-11-13T05:35:44.381Z,7.33
2017-11-13T05:38:13.311Z,7.30
2017-11-13T05:40:41.427Z,7.87
2017-11-13T05:43:09.589Z,7.87
2017-11-13T05:45:37.698Z,8.90
2017-11-13T05:48:06.591Z,7.87
2017-11-13T05:50:34.728Z,7.23
2017-11-13T05:53:02.846Z,7.10
2017-11-13T05:55:30.996Z,10.13
2017-11-13T05:57:59.909Z,7.77
2017-11-13T06:00:28.138Z,8.87
2017-11-13T06:02:57.770Z,13.70
2017-11-13T06:05:26.759Z,8.33
2017-11-13T06:07:55.653Z,8.70
2017-11-13T06:10:24.663Z,9.27
2017-11-13T06:12:52.897Z,8.50
2017-11-13T06:15:21.013Z,10.07
2017-11-13T06:17:49.171Z,9.17
2017-11-13T06:20:18.073Z,11.20
2017-11-13T06:22:46.293Z,9.50
2017-11-13T06:25:15.226Z,10.60
2017-11-13T06:27:45.738Z,10.50
2017-11-13T06:30:14.642Z,11.57
2017-11-13T06:32:42.766Z,10.70
2017-11-13T06:35:10.912Z,14.13
2017-11-13T06:37:39.050Z,18.60
2017-11-13T06:40:08.016Z,13.80
2017-11-13T06:42:36.929Z,12.60
2017-11-13T06:45:05.068Z,12.37
2017-11-13T06:47:33.623Z,12.00
2017-11-13T06:50:01.761Z,13.13
2017-11-13T06:52:30.656Z,15.87
2017-11-13T06:54:59.568Z,16.23
2017-11-13T06:57:27.673Z,13.00
2017-11-13T06:59:55.807Z,13.43
2017-11-13T07:02:23.955Z,19.17
2017-11-13T07:04:52.869Z,13.30
2017-11-13T07:07:20.994Z,14.20
2017-11-13T07:09:49.160Z,15.03
2017-11-13T07:12:17.289Z,19.27
2017-11-13T07:14:45.430Z,15.63
2017-11-13T07:17:14.332Z,15.20
2017-11-13T07:19:42.469Z,17.67
2017-11-13T07:22:11.541Z,14.97
2017-11-13T07:24:39.659Z,16.20
2017-11-13T07:27:08.765Z,16.57
2017-11-13T07:29:36.905Z,17.30
2017-11-13T07:32:05.079Z,15.27
2017-11-13T07:34:33.218Z,13.60
2017-11-13T07:37:01.347Z,14.40
2017-11-13T07:39:30.233Z,12.30
2017-11-13T07:41:59.121Z,14.40
2017-11-13T07:44:28.026Z,15.20
2017-11-13T07:46:56.162Z,12.73
2017-11-13T07:49:24.332Z,11.37
2017-11-13T07:51:52.453Z,13.37
2017-11-13T07:54:20.602Z,13.40
2017-11-13T07:56:50.266Z,15.43
2017-11-13T07:59:18.422Z,18.60
2017-11-13T08:01:46.550Z,13.87
2017-11-13T08:04:15.474Z,13.87
2017-11-13T08:06:43.631Z,13.90
2017-11-13T08:09:11.756Z,12.20
2017-11-13T08:11:39.889Z,13.93
2017-11-13T08:14:08.098Z,13.67
2017-11-13T08:16:36.226Z,12.30
2017-11-13T08:19:04.363Z,13.47
2017-11-13T08:21:32.510Z,11.57
2017-11-13T08:24:00.625Z,15.20
2017-11-13T08:26:29.537Z,13.80
2017-11-13T08:28:57.690Z,13.33
2017-11-13T08:31:26.581Z,18.10
2017-11-13T08:33:54.733Z,14.60
2017-11-13T08:36:23.642Z,13.53
2017-11-13T08:38:52.595Z,15.07
2017-11-13T08:41:20.733Z,14.43
2017-11-13T08:43:49.232Z,14.17
2017-11-13T08:46:17.355Z,16.47
2017-11-13T08:48:46.245Z,13.80
2017-11-13T08:51:15.269Z,12.57
2017-11-13T08:53:43.517Z,16.17
2017-11-13T08:56:11.693Z,12.93
2017-11-13T08:58:39.835Z,16.53
2017-11-13T09:01:09.500Z,15.00
2017-11-13T09:03:37.640Z,20.43
2017-11-13T09:06:06.535Z,16.83
2017-11-13T09:08:34.690Z,12.50
2017-11-13T09:11:02.804Z,18.90
2017-11-13T09:13:30.951Z,11.60
2017-11-13T09:15:59.089Z,14.80
2017-11-13T09:18:27.253Z,19.07
2017-11-13T09:20:55.399Z,16.40
2017-11-13T09:23:23.544Z,14.60
2017-11-13T09:25:51.688Z,14.53
2017-11-13T09:28:20.617Z,14.73
2017-11-13T09:30:48.755Z,14.13
2017-11-13T09:33:16.878Z,12.93
2017-11-13T09:35:45.029Z,14.80
2017-11-13T09:38:13.998Z,14.87
2017-11-13T09:40:43.709Z,15.17
2017-11-13T09:43:12.934Z,13.30
2017-11-13T09:45:41.098Z,13.30
2017-11-13T09:48:09.393Z,14.30
2017-11-13T09:50:37.665Z,14.00
2017-11-13T09:53:05.974Z,14.67
2017-11-13T09:55:35.649Z,15.87
2017-11-13T09:58:03.824Z,20.60
2017-11-13T10:00:32.070Z,27.40
2017-11-13T10:03:00.255Z,17.10
2017-11-13T10:05:28.558Z,20.53
2017-11-13T10:07:56.778Z,24.20
2017-11-13T10:10:25.099Z,21.17
2017-11-13T10:12:53.280Z,16.60
2017-11-13T10:15:21.656Z,20.23
2017-11-13T10:17:49.825Z,20.07
2017-11-13T10:20:18.077Z,16.73
2017-11-13T10:22:47.114Z,18.07
2017-11-13T10:25:15.327Z,16.40
2017-11-13T10:27:44.255Z,18.33
2017-11-13T10:30:12.510Z,18.17
2017-11-13T10:32:40.762Z,20.97
2017-11-13T10:35:09.715Z,17.10
2017-11-13T10:37:37.970Z,21.60
2017-11-13T10:40:06.232Z,22.37
2017-11-13T10:42:34.473Z,17.40
2017-11-13T10:45:03.418Z,17.30
2017-11-13T10:47:31.641Z,19.73
2017-11-13T10:50:00.587Z,24.43
2017-11-13T10:52:28.780Z,21.83
2017-11-13T10:54:56.984Z,19.50
2017-11-13T10:57:25.945Z,19.50
2017-11-13T10:59:54.130Z,21.83
2017-11-13T11:02:22.310Z,19.33
2017-11-13T11:04:50.552Z,25.70
2017-11-13T11:07:18.718Z,16.83
2017-11-13T11:09:46.952Z,21.77
2017-11-13T11:12:18.398Z,16.00
2017-11-13T11:14:48.859Z,17.40
2017-11-13T11:17:21.799Z,18.43
2017-11-13T11:19:52.302Z,15.20
2017-11-13T11:22:23.081Z,21.57
2017-11-13T11:24:52.066Z,20.90
2017-11-13T11:27:23.655Z,19.53
2017-11-13T11:29:51.845Z,13.93
2017-11-13T11:32:28.578Z,16.40
2017-11-13T11:35:18.516Z,20.87
2017-11-13T11:38:04.484Z,15.90
2017-11-13T11:40:43.388Z,14.90
2017-11-13T11:43:11.570Z,18.57
2017-11-13T11:48:28.871Z,16.60
2017-11-13T11:50:57.065Z,17.07
2017-11-13T11:53:25.979Z,19.47
2017-11-13T11:55:54.177Z,29.03
2017-11-13T11:58:22.368Z,13.97
2017-11-13T12:00:50.602Z,15.80
2017-11-13T12:03:18.781Z,13.53
2017-11-13T12:05:47.789Z,14.93
2017-11-13T12:08:15.944Z,18.67
2017-11-13T12:10:44.110Z,17.03
2017-11-13T12:13:12.284Z,18.20
2017-11-13T12:15:47.828Z,13.93
2017-11-13T12:18:16.005Z,19.30
2017-11-13T12:20:44.198Z,13.37
2017-11-13T12:23:12.380Z,18.03
2017-11-13T12:25:40.597Z,21.20
2017-11-13T12:28:08.906Z,11.47
2017-11-13T12:30:37.092Z,15.80
2017-11-13T12:33:05.257Z,15.63
2017-11-13T12:35:33.429Z,14.63
2017-11-13T12:38:01.633Z,15.37
2017-11-13T12:40:29.874Z,11.50
2017-11-13T12:42:58.072Z,15.57
2017-11-13T12:45:26.248Z,15.20
2017-11-13T12:47:55.309Z,16.90
2017-11-13T12:50:23.473Z,16.07
2017-11-13T12:52:51.646Z,20.30
2017-11-13T12:55:19.851Z,23.17
2017-11-13T12:57:48.010Z,15.47
2017-11-13T13:00:16.379Z,21.60
2017-11-13T13:02:44.573Z,16.33
2017-11-13T13:05:12.753Z,18.90
2017-11-13T13:07:40.930Z,12.83
2017-11-13T13:10:09.137Z,20.37
2017-11-13T13:12:38.058Z,18.63
2017-11-13T13:15:06.229Z,20.43
2017-11-13T13:17:34.433Z,16.17
2017-11-13T13:20:02.598Z,18.80
2017-11-13T13:22:30.799Z,21.20
2017-11-13T13:24:59.853Z,14.63
2017-11-13T13:27:28.084Z,15.73
2017-11-13T13:29:57.033Z,24.73
2017-11-13T13:32:25.986Z,14.40
2017-11-13T13:34:54.157Z,16.00
2017-11-13T13:37:22.373Z,17.80
2017-11-13T13:39:50.648Z,18.90
2017-11-13T13:42:18.841Z,30.47
2017-11-13T13:44:47.042Z,21.57
2017-11-13T13:47:16.398Z,18.43
2017-11-13T13:49:44.616Z,23.73
2017-11-13T13:52:13.560Z,14.80
2017-11-13T13:54:41.748Z,15.53
2017-11-13T13:57:09.931Z,17.77
2017-11-13T13:59:38.146Z,20.40
2017-11-13T14:02:06.333Z,18.37
2017-11-13T14:04:34.497Z,21.37
2017-11-13T14:07:02.708Z,19.00
2017-11-13T14:09:30.880Z,15.23
2017-11-13T14:11:59.089Z,24.87
2017-11-13T14:14:28.052Z,19.40
2017-11-13T14:16:56.209Z,24.93
2017-11-13T14:19:24.451Z,20.90
2017-11-13T14:21:52.752Z,16.30
2017-11-13T14:24:20.936Z,25.87
2017-11-13T14:26:49.679Z,21.60
2017-11-13T14:29:18.634Z,25.53
2017-11-13T14:31:46.831Z,24.87
2017-11-13T14:34:15.974Z,16.63
2017-11-13T14:36:44.175Z,20.97
2017-11-13T14:39:12.433Z,20.53
2017-11-13T14:41:40.633Z,18.43
2017-11-13T14:44:08.819Z,30.87
2017-11-13T14:46:37.767Z,19.70
2017-11-13T14:49:05.948Z,20.10
2017-11-13T14:51:34.157Z,20.63
2017-11-13T14:54:02.302Z,19.27
2017-11-13T14:56:30.486Z,20.20
2017-11-13T14:59:00.155Z,16.60
2017-11-13T15:01:28.393Z,17.60
2017-11-13T15:03:56.586Z,13.60
2017-11-13T15:06:24.737Z,13.60
2017-11-13T15:08:53.731Z,23.07
2017-11-13T15:11:22.670Z,19.03
2017-11-13T15:13:50.816Z,20.17
2017-11-13T15:16:18.953Z,15.03
2017-11-13T15:18:47.104Z,17.53
2017-11-13T15:21:15.257Z,15.10
2017-11-13T15:23:43.488Z,22.90
2017-11-13T15:26:12.468Z,15.77
2017-11-13T15:28:41.380Z,19.40
2017-11-13T15:31:10.301Z,15.70
2017-11-13T15:33:39.235Z,15.87
2017-11-13T15:36:07.368Z,15.20
2017-11-13T15:38:35.490Z,17.43
2017-11-13T15:41:04.397Z,16.97
2017-11-13T15:43:32.666Z,15.63
2017-11-13T15:46:01.604Z,26.40
2017-11-13T15:48:29.758Z,24.63
2017-11-13T15:50:57.915Z,26.03
2017-11-13T15:53:26.057Z,23.40
2017-11-13T15:55:54.957Z,21.27
2017-11-13T15:58:23.900Z,23.60
2017-11-13T16:00:52.062Z,37.33
2017-11-13T16:03:20.237Z,26.60
2017-11-13T16:05:48.400Z,41.27
2017-11-13T16:08:16.537Z,31.13
2017-11-13T16:10:45.476Z,32.60
2017-11-13T16:13:13.614Z,25.83
2017-11-13T16:15:41.766Z,22.93
2017-11-13T16:18:10.691Z,19.50
2017-11-13T16:20:38.827Z,27.20
2017-11-13T16:23:07.730Z,30.63
2017-11-13T16:25:35.876Z,31.37
2017-11-13T16:28:04.061Z,31.63
2017-11-13T16:30:32.963Z,29.00
2017-11-13T16:33:01.946Z,27.03
2017-11-13T16:35:30.111Z,28.77
2017-11-13T16:37:58.287Z,41.23
2017-11-13T16:40:27.944Z,46.10
2017-11-13T16:42:56.081Z,37.23
2017-11-13T16:45:24.999Z,39.47
2017-11-13T16:47:53.139Z,41.33
2017-11-13T16:50:22.081Z,32.77
2017-11-13T16:52:51.101Z,33.40
2017-11-13T16:55:19.260Z,24.33
2017-11-13T16:57:47.379Z,21.57
2017-11-13T17:00:16.313Z,29.33
2017-11-13T17:02:44.510Z,30.00
2017-11-13T17:05:13.357Z,39.13
2017-11-13T17:07:42.093Z,35.27
2017-11-13T17:10:10.261Z,37.73
2017-11-13T17:12:38.415Z,36.17
2017-11-13T17:15:06.551Z,26.63
2017-11-13T17:17:34.724Z,34.20
2017-11-13T17:20:03.641Z,25.00
2017-11-13T17:22:31.792Z,28.20
2017-11-13T17:24:59.991Z,27.83
2017-11-13T17:27:28.225Z,25.30
2017-11-13T17:29:56.378Z,18.70
2017-11-13T17:32:25.293Z,21.90
2017-11-13T17:34:53.430Z,21.50
2017-11-13T17:37:21.573Z,21.40
2017-11-13T17:39:49.722Z,21.10
2017-11-13T17:42:17.885Z,18.30
2017-11-13T17:44:46.049Z,16.43
2017-11-13T17:47:14.972Z,19.60
2017-11-13T17:49:43.108Z,20.23
2017-11-13T17:52:12.034Z,19.83
2017-11-13T17:54:40.186Z,19.57
2017-11-13T17:57:08.352Z,24.60
2017-11-13T17:59:37.258Z,14.27
2017-11-13T18:02:05.385Z,12.80
2017-11-13T18:04:33.546Z,16.63
2017-11-13T18:07:01.691Z,15.33
2017-11-13T18:09:29.845Z,17.63
2017-11-13T18:11:58.023Z,18.73
2017-11-13T18:14:26.223Z,18.60
2017-11-13T18:16:54.345Z,24.00
2017-11-13T18:19:23.313Z,29.20
2017-11-13T18:21:52.244Z,20.80
2017-11-13T18:24:20.387Z,24.33
2017-11-13T18:26:49.312Z,25.80
2017-11-13T18:29:17.446Z,42.13
2017-11-13T18:31:46.378Z,30.70
2017-11-13T18:34:14.532Z,35.10
2017-11-13T18:36:43.514Z,37.20
2017-11-13T18:39:12.419Z,38.70
2017-11-13T18:41:40.555Z,43.70
2017-11-13T18:44:08.762Z,34.10
2017-11-13T18:46:36.922Z,34.80
2017-11-13T18:49:05.859Z,46.50
2017-11-13T18:51:34.010Z,45.77
2017-11-13T18:54:02.196Z,32.03
2017-11-13T18:56:30.433Z,36.60
2017-11-13T18:58:59.363Z,27.23
2017-11-13T19:01:27.650Z,31.77
2017-11-13T19:03:55.799Z,26.60
2017-11-13T19:06:23.979Z,24.60
2017-11-13T19:08:52.125Z,22.03
2017-11-13T19:11:21.148Z,31.10
2017-11-13T19:13:49.322Z,28.67
2017-11-13T19:16:17.453Z,29.10
2017-11-13T19:18:46.403Z,25.53
2017-11-13T19:21:14.577Z,33.63
2017-11-13T19:23:42.729Z,42.50
2017-11-13T19:26:10.881Z,38.23
2017-11-13T19:28:39.065Z,37.80
2017-11-13T19:31:07.212Z,46.30
2017-11-13T19:33:36.153Z,33.37
2017-11-13T19:36:04.329Z,40.10
2017-11-13T19:38:32.557Z,37.93
2017-11-13T19:41:00.865Z,36.40
2017-11-13T19:43:28.995Z,30.93
2017-11-13T19:45:57.933Z,30.77
2017-11-13T19:48:26.097Z,28.40
2017-11-13T19:50:54.270Z,30.00
2017-11-13T19:53:22.444Z,33.90
2017-11-13T19:55:50.582Z,34.23
2017-11-13T19:58:19.509Z,32.43
2017-11-13T20:00:47.686Z,38.73
2017-11-13T20:03:15.815Z,31.30
2017-11-13T20:05:44.948Z,41.37
2017-11-13T20:08:13.325Z,50.27
2017-11-13T20:10:42.731Z,39.07
2017-11-13T20:13:11.195Z,44.07
2017-11-13T20:15:39.668Z,53.27
2017-11-13T20:18:08.171Z,42.30
2017-11-13T20:20:36.748Z,38.43
2017-11-13T20:23:05.246Z,37.93
2017-11-13T20:25:34.540Z,47.60
2017-11-13T20:28:03.840Z,44.27
2017-11-13T20:30:32.129Z,46.87
2017-11-13T20:33:00.367Z,50.63
2017-11-13T20:35:28.579Z,62.20
2017-11-13T20:37:56.858Z,45.13
2017-11-13T20:40:26.562Z,44.70
2017-11-13T20:42:54.688Z,51.17
2017-11-13T20:45:22.852Z,37.83
2017-11-13T20:47:51.009Z,29.93
2017-11-13T20:50:19.975Z,37.77
2017-11-13T20:52:48.118Z,29.53
2017-11-13T20:55:16.352Z,29.27
2017-11-13T20:57:45.273Z,32.90
2017-11-13T21:00:13.438Z,31.93
2017-11-13T21:02:41.593Z,37.73
2017-11-13T21:05:09.737Z,37.23
2017-11-13T21:07:37.932Z,32.50
2017-11-13T21:10:06.840Z,29.57
2017-11-13T21:12:35.000Z,22.20
2017-11-13T21:15:03.154Z,34.40
2017-11-13T21:17:31.318Z,17.77
2017-11-13T21:19:59.458Z,16.13
2017-11-13T21:22:27.602Z,18.30
2017-11-13T21:24:55.759Z,18.97
2017-11-13T21:27:24.654Z,24.97
2017-11-13T21:29:52.832Z,24.97
2017-11-13T21:32:20.974Z,21.67
2017-11-13T21:34:49.140Z,18.47
2017-11-13T21:37:17.279Z,21.73
2017-11-13T21:39:45.431Z,25.17
2017-11-13T21:42:13.573Z,20.40
2017-11-13T21:44:42.478Z,26.47
2017-11-13T21:47:11.602Z,31.90
2017-11-13T21:49:39.756Z,87.43
2017-11-13T21:52:08.691Z,88.77
2017-11-13T21:54:36.860Z,61.77
2017-11-13T21:57:04.998Z,49.70
2017-11-13T21:59:33.173Z,59.90
2017-11-13T22:02:01.341Z,28.13
2017-11-13T22:04:29.536Z,29.83
2017-11-13T22:06:57.669Z,28.87
2017-11-13T22:09:26.587Z,31.77
2017-11-13T22:11:54.717Z,35.53
2017-11-13T22:14:22.851Z,32.80
2017-11-13T22:16:50.997Z,26.30
2017-11-13T22:19:19.153Z,27.17
2017-11-13T22:21:47.292Z,31.17
2017-11-13T22:24:16.985Z,25.20
2017-11-13T22:26:45.136Z,26.43
2017-11-13T22:29:13.273Z,30.63
2017-11-13T22:31:42.176Z,26.33
2017-11-13T22:34:10.360Z,23.30
2017-11-13T22:36:38.574Z,24.57
2017-11-13T22:39:06.738Z,20.83
2017-11-13T22:41:34.877Z,22.50
2017-11-13T22:44:03.010Z,24.50
2017-11-13T22:46:31.153Z,26.23
2017-11-13T22:48:59.281Z,31.33
2017-11-13T22:51:27.453Z,30.87
2017-11-13T22:53:56.341Z,34.00
2017-11-13T22:56:24.518Z,34.60
2017-11-13T22:58:52.654Z,33.07
2017-11-13T23:01:20.789Z,27.13
2017-11-13T23:03:48.925Z,28.50
2017-11-13T23:06:17.822Z,25.53
2017-11-13T23:08:45.945Z,32.93
2017-11-13T23:11:14.083Z,23.77
2017-11-13T23:13:42.220Z,22.37
2017-11-13T23:16:11.132Z,23.40
2017-11-13T23:18:40.020Z,26.83
2017-11-13T23:21:08.169Z,26.50
2017-11-13T23:23:36.300Z,23.83
2017-11-13T23:26:04.441Z,22.73
2017-11-13T23:28:32.608Z,21.80
2017-11-13T23:31:01.517Z,29.67
2017-11-13T23:33:29.666Z,23.77
2017-11-13T23:35:58.561Z,35.47
2017-11-13T23:38:27.478Z,33.50
2017-11-13T23:40:55.599Z,39.50
2017-11-13T23:43:24.541Z,30.70
2017-11-13T23:45:52.670Z,29.23
2017-11-13T23:48:21.585Z,27.23
2017-11-13T23:50:49.713Z,30.10
2017-11-13T23:53:19.356Z,26.90
2017-11-13T23:55:47.490Z,28.37
2017-11-13T23:58:15.634Z,26.70
